Deunquat, Ohio
Current Conditions -  °F | °C
As of 5:24 AM on Thursday 27 Nov 2014 (Local Time) from KMNN Reporting Station
Haze Haze  
Wind Chill: -7°   Ceiling: 1700
Heat Index: -1°   Visibility: 5mi
Dew Point: -3°   Wind: 13mph
Humidity: 85%   Direction: 340°NNW
Pressure: 30.07"   Gusts: NA
Location:  40.948°N, 83.1346°W
Report Text: KMNN 271024Z AUTO 34011KT 5SM BR SCT010 BKN017 OVC025 M01/M03 A3007 RMK AO2 T10111033 TSNO
Loading
Personal Weather Stations






























Interactive Weather Map New forecast layout! Learn more

10-Day Weather Forecast

Advertisements
Track Severe Weather on mobile